sensor_id;sensor_type;location;lat;lon;timestamp;temperature;humidity
44627;DHT22;30333;52.192;8.834;2022-11-15T00:00:32;9.00;99.90
44627;DHT22;30333;52.192;8.834;2022-11-15T00:05:26;9.00;99.90
44627;DHT22;30333;52.192;8.834;2022-11-15T00:10:22;9.10;99.90
44627;DHT22;30333;52.192;8.834;2022-11-15T00:17:46;9.20;99.90
44627;DHT22;30333;52.192;8.834;2022-11-15T00:20:14;11.40;99.90
44627;DHT22;30333;52.192;8.834;2022-11-15T00:30:03;9.50;99.90
44627;DHT22;30333;52.192;8.834;2022-11-15T00:32:31;9.50;99.90
44627;DHT22;30333;52.192;8.834;2022-11-15T00:34:59;9.60;99.90
44627;DHT22;30333;52.192;8.834;2022-11-15T00:39:53;9.70;99.90
44627;DHT22;30333;52.192;8.834;2022-11-15T00:52:10;9.90;99.90
44627;DHT22;30333;52.192;8.834;2022-11-15T01:04:26;10.00;99.90
44627;DHT22;30333;52.192;8.834;2022-11-15T01:09:21;10.10;99.90
44627;DHT22;30333;52.192;8.834;2022-11-15T01:11:48;10.20;99.90
44627;DHT22;30333;52.192;8.834;2022-11-15T01:16:49;10.30;99.90
44627;DHT22;30333;52.192;8.834;2022-11-15T01:19:16;10.30;99.90
44627;DHT22;30333;52.192;8.834;2022-11-15T01:24:12;10.50;99.90
44627;DHT22;30333;52.192;8.834;2022-11-15T01:26:41;10.50;99.90
44627;DHT22;30333;52.192;8.834;2022-11-15T01:38:58;10.70;99.90
44627;DHT22;30333;52.192;8.834;2022-11-15T01:41:27;10.80;99.90
44627;DHT22;30333;52.192;8.834;2022-11-15T01:43:57;11.90;99.90
44627;DHT22;30333;52.192;8.834;2022-11-15T01:46:25;10.80;99.90
44627;DHT22;30333;52.192;8.834;2022-11-15T01:48:55;11.20;99.90
44627;DHT22;30333;52.192;8.834;2022-11-15T01:51:27;10.80;99.90
44627;DHT22;30333;52.192;8.834;2022-11-15T01:54:01;10.90;99.90
44627;DHT22;30333;52.192;8.834;2022-11-15T01:56:31;10.90;99.90
44627;DHT22;30333;52.192;8.834;2022-11-15T01:59:03;11.00;99.90
44627;DHT22;30333;52.192;8.834;2022-11-15T02:01:32;11.00;99.90
44627;DHT22;30333;52.192;8.834;2022-11-15T02:04:04;12.00;99.90
44627;DHT22;30333;52.192;8.834;2022-11-15T02:06:34;11.10;99.90
44627;DHT22;30333;52.192;8.834;2022-11-15T02:11:28;11.10;99.90
44627;DHT22;30333;52.192;8.834;2022-11-15T02:13:56;11.10;99.90
44627;DHT22;30333;52.192;8.834;2022-11-15T02:16:31;11.10;99.90
44627;DHT22;30333;52.192;8.834;2022-11-15T02:19:06;11.20;99.90
44627;DHT22;30333;52.192;8.834;2022-11-15T02:21:42;11.20;99.90
44627;DHT22;30333;52.192;8.834;2022-11-15T02:24:32;11.20;99.90
44627;DHT22;30333;52.192;8.834;2022-11-15T02:27:24;11.10;99.90
44627;DHT22;30333;52.192;8.834;2022-11-15T02:30:23;11.10;99.90
44627;DHT22;30333;52.192;8.834;2022-11-15T02:32:53;11.10;99.90
44627;DHT22;30333;52.192;8.834;2022-11-15T02:35:29;11.00;99.90
44627;DHT22;30333;52.192;8.834;2022-11-15T02:38:06;11.00;99.90
44627;DHT22;30333;52.192;8.834;2022-11-15T02:40:39;11.00;99.90
44627;DHT22;30333;52.192;8.834;2022-11-15T02:43:09;11.10;99.90
44627;DHT22;30333;52.192;8.834;2022-11-15T02:46:01;11.80;99.90
44627;DHT22;30333;52.192;8.834;2022-11-15T02:48:31;11.10;99.90
44627;DHT22;30333;52.192;8.834;2022-11-15T02:50:59;10.90;99.90
44627;DHT22;30333;52.192;8.834;2022-11-15T02:53:27;10.90;99.90
44627;DHT22;30333;52.192;8.834;2022-11-15T02:55:56;11.80;99.90
44627;DHT22;30333;52.192;8.834;2022-11-15T02:58:51;11.00;99.90
44627;DHT22;30333;52.192;8.834;2022-11-15T03:01:30;11.10;99.90
44627;DHT22;30333;52.192;8.834;2022-11-15T03:04:09;11.10;99.90
44627;DHT22;30333;52.192;8.834;2022-11-15T03:06:46;11.10;99.90
44627;DHT22;30333;52.192;8.834;2022-11-15T03:09:26;11.10;99.90
44627;DHT22;30333;52.192;8.834;2022-11-15T03:12:00;11.10;99.90
44627;DHT22;30333;52.192;8.834;2022-11-15T03:14:32;11.00;99.90
44627;DHT22;30333;52.192;8.834;2022-11-15T03:17:01;11.10;99.90
44627;DHT22;30333;52.192;8.834;2022-11-15T03:19:32;11.10;99.90
44627;DHT22;30333;52.192;8.834;2022-11-15T03:22:04;11.10;99.90
44627;DHT22;30333;52.192;8.834;2022-11-15T03:24:36;11.20;99.90
44627;DHT22;30333;52.192;8.834;2022-11-15T03:27:05;11.20;99.90
44627;DHT22;30333;52.192;8.834;2022-11-15T03:29:35;11.20;99.90
44627;DHT22;30333;52.192;8.834;2022-11-15T03:32:07;11.30;99.90
44627;DHT22;30333;52.192;8.834;2022-11-15T03:34:39;11.40;99.90
44627;DHT22;30333;52.192;8.834;2022-11-15T03:37:08;11.40;99.90
44627;DHT22;30333;52.192;8.834;2022-11-15T03:39:36;11.40;99.90
44627;DHT22;30333;52.192;8.834;2022-11-15T03:42:12;11.50;99.90
44627;DHT22;30333;52.192;8.834;2022-11-15T03:44:43;11.50;99.90
44627;DHT22;30333;52.192;8.834;2022-11-15T03:47:17;11.60;99.90
44627;DHT22;30333;52.192;8.834;2022-11-15T03:49:50;11.50;99.90
44627;DHT22;30333;52.192;8.834;2022-11-15T03:52:20;11.60;99.90
44627;DHT22;30333;52.192;8.834;2022-11-15T03:54:49;11.50;99.90
44627;DHT22;30333;52.192;8.834;2022-11-15T03:57:16;14.00;99.90
44627;DHT22;30333;52.192;8.834;2022-11-15T04:02:12;11.50;99.90
44627;DHT22;30333;52.192;8.834;2022-11-15T04:04:40;11.50;99.90
44627;DHT22;30333;52.192;8.834;2022-11-15T04:12:21;11.40;99.90
44627;DHT22;30333;52.192;8.834;2022-11-15T04:15:01;11.40;99.90
44627;DHT22;30333;52.192;8.834;2022-11-15T04:17:39;11.40;99.90
44627;DHT22;30333;52.192;8.834;2022-11-15T04:20:10;11.40;99.90
44627;DHT22;30333;52.192;8.834;2022-11-15T04:22:57;11.50;99.90
44627;DHT22;30333;52.192;8.834;2022-11-15T04:25:43;11.50;99.90
44627;DHT22;30333;52.192;8.834;2022-11-15T04:28:10;11.60;99.90
44627;DHT22;30333;52.192;8.834;2022-11-15T04:30:38;11.60;99.90
44627;DHT22;30333;52.192;8.834;2022-11-15T04:35:34;11.60;99.90
44627;DHT22;30333;52.192;8.834;2022-11-15T04:38:02;11.60;99.90
44627;DHT22;30333;52.192;8.834;2022-11-15T04:40:30;11.50;99.90
44627;DHT22;30333;52.192;8.834;2022-11-15T04:45:30;11.40;99.90
44627;DHT22;30333;52.192;8.834;2022-11-15T04:47:57;11.50;99.90
44627;DHT22;30333;52.192;8.834;2022-11-15T04:50:23;11.40;99.90
44627;DHT22;30333;52.192;8.834;2022-11-15T04:52:53;11.40;99.90
44627;DHT22;30333;52.192;8.834;2022-11-15T04:57:48;11.50;99.90
44627;DHT22;30333;52.192;8.834;2022-11-15T05:02:51;11.50;99.90
44627;DHT22;30333;52.192;8.834;2022-11-15T05:05:36;11.50;99.90
44627;DHT22;30333;52.192;8.834;2022-11-15T05:08:05;11.60;99.90
44627;DHT22;30333;52.192;8.834;2022-11-15T05:15:26;11.60;99.90
44627;DHT22;30333;52.192;8.834;2022-11-15T05:17:57;11.60;99.90
44627;DHT22;30333;52.192;8.834;2022-11-15T05:20:24;11.60;99.90
44627;DHT22;30333;52.192;8.834;2022-11-15T05:22:52;11.60;99.90
44627;DHT22;30333;52.192;8.834;2022-11-15T05:25:21;11.60;99.90
44627;DHT22;30333;52.192;8.834;2022-11-15T05:32:43;11.60;99.90
44627;DHT22;30333;52.192;8.834;2022-11-15T05:35:13;11.60;99.90
44627;DHT22;30333;52.192;8.834;2022-11-15T05:42:39;11.60;99.90
44627;DHT22;30333;52.192;8.834;2022-11-15T05:45:08;13.30;99.90
44627;DHT22;30333;52.192;8.834;2022-11-15T05:47:36;11.60;99.90
44627;DHT22;30333;52.192;8.834;2022-11-15T05:50:06;11.60;99.90
44627;DHT22;30333;52.192;8.834;2022-11-15T05:52:34;11.70;99.90
44627;DHT22;30333;52.192;8.834;2022-11-15T05:55:03;11.60;99.90
44627;DHT22;30333;52.192;8.834;2022-11-15T06:00:01;11.60;99.90
44627;DHT22;30333;52.192;8.834;2022-11-15T06:04:55;11.60;99.90
44627;DHT22;30333;52.192;8.834;2022-11-15T06:17:12;11.60;99.90
44627;DHT22;30333;52.192;8.834;2022-11-15T06:34:23;11.60;99.90
44627;DHT22;30333;52.192;8.834;2022-11-15T06:49:06;11.70;99.90
44627;DHT22;30333;52.192;8.834;2022-11-15T06:51:36;11.70;99.90
44627;DHT22;30333;52.192;8.834;2022-11-15T06:54:03;12.30;99.90
44627;DHT22;30333;52.192;8.834;2022-11-15T06:56:30;11.60;99.90
44627;DHT22;30333;52.192;8.834;2022-11-15T06:58:57;11.60;99.90
44627;DHT22;30333;52.192;8.834;2022-11-15T07:01:24;11.60;99.90
44627;DHT22;30333;52.192;8.834;2022-11-15T07:03:51;11.70;99.90
44627;DHT22;30333;52.192;8.834;2022-11-15T07:06:18;11.80;99.90
44627;DHT22;30333;52.192;8.834;2022-11-15T07:08:46;13.20;99.90
44627;DHT22;30333;52.192;8.834;2022-11-15T07:16:09;11.90;99.90
44627;DHT22;30333;52.192;8.834;2022-11-15T07:18:38;11.90;99.90
44627;DHT22;30333;52.192;8.834;2022-11-15T07:21:06;11.90;99.90
44627;DHT22;30333;52.192;8.834;2022-11-15T07:23:33;11.90;99.90
44627;DHT22;30333;52.192;8.834;2022-11-15T07:26:04;12.20;99.90
44627;DHT22;30333;52.192;8.834;2022-11-15T07:28:31;12.00;99.90
44627;DHT22;30333;52.192;8.834;2022-11-15T07:31:01;12.00;99.90
44627;DHT22;30333;52.192;8.834;2022-11-15T07:33:27;12.00;99.90
44627;DHT22;30333;52.192;8.834;2022-11-15T07:35:58;12.00;99.90
44627;DHT22;30333;52.192;8.834;2022-11-15T07:40:56;12.00;99.90
44627;DHT22;30333;52.192;8.834;2022-11-15T07:43:24;12.00;99.90
44627;DHT22;30333;52.192;8.834;2022-11-15T07:45:51;12.00;99.90
44627;DHT22;30333;52.192;8.834;2022-11-15T07:48:24;12.00;99.90
44627;DHT22;30333;52.192;8.834;2022-11-15T07:53:28;12.10;99.90
44627;DHT22;30333;52.192;8.834;2022-11-15T07:55:56;12.10;99.90
44627;DHT22;30333;52.192;8.834;2022-11-15T07:58:24;12.10;99.90
44627;DHT22;30333;52.192;8.834;2022-11-15T08:00:51;12.10;99.90
44627;DHT22;30333;52.192;8.834;2022-11-15T08:05:50;12.30;99.90
44627;DHT22;30333;52.192;8.834;2022-11-15T08:10:45;12.40;99.90
44627;DHT22;30333;52.192;8.834;2022-11-15T08:15:41;12.40;99.90
44627;DHT22;30333;52.192;8.834;2022-11-15T08:18:10;12.40;99.90
44627;DHT22;30333;52.192;8.834;2022-11-15T08:20:38;12.40;99.90
44627;DHT22;30333;52.192;8.834;2022-11-15T08:23:05;12.40;99.90
44627;DHT22;30333;52.192;8.834;2022-11-15T08:25:34;12.30;99.90
44627;DHT22;30333;52.192;8.834;2022-11-15T08:28:03;14.40;99.90
44627;DHT22;30333;52.192;8.834;2022-11-15T08:30:35;12.30;99.90
44627;DHT22;30333;52.192;8.834;2022-11-15T08:33:04;14.30;99.90
44627;DHT22;30333;52.192;8.834;2022-11-15T08:47:48;12.30;99.90
44627;DHT22;30333;52.192;8.834;2022-11-15T08:50:21;13.50;99.90
44627;DHT22;30333;52.192;8.834;2022-11-15T08:52:48;12.30;99.90
44627;DHT22;30333;52.192;8.834;2022-11-15T08:55:15;12.40;99.90
44627;DHT22;30333;52.192;8.834;2022-11-15T09:00:11;12.40;99.90
44627;DHT22;30333;52.192;8.834;2022-11-15T09:05:07;12.50;99.90
44627;DHT22;30333;52.192;8.834;2022-11-15T09:07:35;12.60;99.90
44627;DHT22;30333;52.192;8.834;2022-11-15T09:10:03;12.60;99.90
44627;DHT22;30333;52.192;8.834;2022-11-15T09:12:30;12.60;99.90
44627;DHT22;30333;52.192;8.834;2022-11-15T09:22:19;12.70;99.90
44627;DHT22;30333;52.192;8.834;2022-11-15T09:24:47;14.30;99.90
44627;DHT22;30333;52.192;8.834;2022-11-15T09:27:14;12.70;99.90
44627;DHT22;30333;52.192;8.834;2022-11-15T09:29:41;12.80;99.90
44627;DHT22;30333;52.192;8.834;2022-11-15T09:32:09;13.30;99.90
44627;DHT22;30333;52.192;8.834;2022-11-15T09:34:35;13.50;99.90
44627;DHT22;30333;52.192;8.834;2022-11-15T09:39:30;12.80;99.90
44627;DHT22;30333;52.192;8.834;2022-11-15T09:42:07;12.90;99.90
44627;DHT22;30333;52.192;8.834;2022-11-15T09:44:46;12.90;99.90
44627;DHT22;30333;52.192;8.834;2022-11-15T09:47:40;12.90;99.90
44627;DHT22;30333;52.192;8.834;2022-11-15T09:50:12;13.00;99.90
44627;DHT22;30333;52.192;8.834;2022-11-15T09:52:43;13.00;99.90
44627;DHT22;30333;52.192;8.834;2022-11-15T09:55:12;13.00;99.90
44627;DHT22;30333;52.192;8.834;2022-11-15T09:57:50;13.10;99.90
44627;DHT22;30333;52.192;8.834;2022-11-15T10:00:21;13.10;99.90
44627;DHT22;30333;52.192;8.834;2022-11-15T10:03:10;13.10;99.90
44627;DHT22;30333;52.192;8.834;2022-11-15T10:05:40;13.10;99.90
44627;DHT22;30333;52.192;8.834;2022-11-15T10:08:25;13.10;99.90
44627;DHT22;30333;52.192;8.834;2022-11-15T10:10:57;13.10;99.90
44627;DHT22;30333;52.192;8.834;2022-11-15T10:13:47;13.20;99.90
44627;DHT22;30333;52.192;8.834;2022-11-15T10:16:29;13.20;99.90
44627;DHT22;30333;52.192;8.834;2022-11-15T10:19:06;13.20;99.90
44627;DHT22;30333;52.192;8.834;2022-11-15T10:21:40;13.20;99.90
44627;DHT22;30333;52.192;8.834;2022-11-15T10:24:11;13.30;99.90
44627;DHT22;30333;52.192;8.834;2022-11-15T10:26:43;13.30;99.90
44627;DHT22;30333;52.192;8.834;2022-11-15T10:29:18;13.40;99.90
44627;DHT22;30333;52.192;8.834;2022-11-15T10:34:13;13.40;99.90
44627;DHT22;30333;52.192;8.834;2022-11-15T10:36:44;13.50;99.90
44627;DHT22;30333;52.192;8.834;2022-11-15T10:39:16;13.50;99.90
44627;DHT22;30333;52.192;8.834;2022-11-15T10:41:43;13.50;99.90
44627;DHT22;30333;52.192;8.834;2022-11-15T10:44:24;13.50;99.90
44627;DHT22;30333;52.192;8.834;2022-11-15T10:49:57;13.50;99.90
44627;DHT22;30333;52.192;8.834;2022-11-15T10:52:25;13.70;99.90
44627;DHT22;30333;52.192;8.834;2022-11-15T10:54:55;13.50;99.90
44627;DHT22;30333;52.192;8.834;2022-11-15T10:57:26;13.50;99.90
44627;DHT22;30333;52.192;8.834;2022-11-15T10:59:58;13.60;99.90
44627;DHT22;30333;52.192;8.834;2022-11-15T11:02:32;13.60;99.90
44627;DHT22;30333;52.192;8.834;2022-11-15T11:05:01;13.60;99.90
44627;DHT22;30333;52.192;8.834;2022-11-15T11:07:30;13.70;99.90
44627;DHT22;30333;52.192;8.834;2022-11-15T11:10:02;14.30;99.90
44627;DHT22;30333;52.192;8.834;2022-11-15T11:15:17;13.70;99.90
44627;DHT22;30333;52.192;8.834;2022-11-15T11:17:57;13.70;99.90
44627;DHT22;30333;52.192;8.834;2022-11-15T11:20:30;13.80;99.90
44627;DHT22;30333;52.192;8.834;2022-11-15T11:23:11;13.90;99.90
44627;DHT22;30333;52.192;8.834;2022-11-15T11:25:46;15.20;99.90
44627;DHT22;30333;52.192;8.834;2022-11-15T11:28:30;13.90;99.90
44627;DHT22;30333;52.192;8.834;2022-11-15T11:31:13;14.00;99.90
44627;DHT22;30333;52.192;8.834;2022-11-15T11:33:47;14.00;99.90
44627;DHT22;30333;52.192;8.834;2022-11-15T11:36:21;14.50;99.90
44627;DHT22;30333;52.192;8.834;2022-11-15T11:38:57;14.00;99.90
44627;DHT22;30333;52.192;8.834;2022-11-15T11:41:39;14.00;99.90
44627;DHT22;30333;52.192;8.834;2022-11-15T11:44:18;14.00;99.90
44627;DHT22;30333;52.192;8.834;2022-11-15T11:46:55;14.00;99.90
44627;DHT22;30333;52.192;8.834;2022-11-15T11:49:28;14.10;99.90
44627;DHT22;30333;52.192;8.834;2022-11-15T11:52:02;14.10;99.90
44627;DHT22;30333;52.192;8.834;2022-11-15T11:54:34;14.10;99.90
44627;DHT22;30333;52.192;8.834;2022-11-15T11:57:07;14.10;99.90
44627;DHT22;30333;52.192;8.834;2022-11-15T11:59:43;14.20;99.90
44627;DHT22;30333;52.192;8.834;2022-11-15T12:02:18;14.10;99.90
44627;DHT22;30333;52.192;8.834;2022-11-15T12:04:50;14.10;99.90
44627;DHT22;30333;52.192;8.834;2022-11-15T12:07:19;14.40;99.90
44627;DHT22;30333;52.192;8.834;2022-11-15T12:09:53;14.10;99.90
44627;DHT22;30333;52.192;8.834;2022-11-15T12:12:25;14.10;99.90
44627;DHT22;30333;52.192;8.834;2022-11-15T12:14:56;14.00;99.90
44627;DHT22;30333;52.192;8.834;2022-11-15T12:17:26;14.00;99.90
44627;DHT22;30333;52.192;8.834;2022-11-15T12:19:56;14.00;99.90
44627;DHT22;30333;52.192;8.834;2022-11-15T12:22:29;14.00;99.90
44627;DHT22;30333;52.192;8.834;2022-11-15T12:25:02;14.00;99.90
44627;DHT22;30333;52.192;8.834;2022-11-15T12:27:35;14.10;99.90
44627;DHT22;30333;52.192;8.834;2022-11-15T12:30:09;14.30;99.90
44627;DHT22;30333;52.192;8.834;2022-11-15T12:32:48;14.10;99.90
44627;DHT22;30333;52.192;8.834;2022-11-15T12:35:24;15.20;99.90
44627;DHT22;30333;52.192;8.834;2022-11-15T12:37:52;14.20;99.90
44627;DHT22;30333;52.192;8.834;2022-11-15T12:40:33;14.20;99.90
44627;DHT22;30333;52.192;8.834;2022-11-15T12:43:10;14.10;99.90
44627;DHT22;30333;52.192;8.834;2022-11-15T12:54:53;14.10;99.90
44627;DHT22;30333;52.192;8.834;2022-11-15T12:57:40;14.10;99.90
44627;DHT22;30333;52.192;8.834;2022-11-15T13:00:38;14.20;99.90
44627;DHT22;30333;52.192;8.834;2022-11-15T13:03:24;14.10;99.90
44627;DHT22;30333;52.192;8.834;2022-11-15T13:05:58;14.10;99.90
44627;DHT22;30333;52.192;8.834;2022-11-15T13:08:49;14.00;99.90
44627;DHT22;30333;52.192;8.834;2022-11-15T13:11:47;14.30;99.90
44627;DHT22;30333;52.192;8.834;2022-11-15T13:14:41;13.90;99.90
44627;DHT22;30333;52.192;8.834;2022-11-15T13:17:24;14.00;99.90
44627;DHT22;30333;52.192;8.834;2022-11-15T13:19:58;13.90;99.90
44627;DHT22;30333;52.192;8.834;2022-11-15T13:22:25;14.20;99.90
44627;DHT22;30333;52.192;8.834;2022-11-15T13:25:15;13.90;99.90
44627;DHT22;30333;52.192;8.834;2022-11-15T13:27:47;13.90;99.90
44627;DHT22;30333;52.192;8.834;2022-11-15T13:30:19;13.90;99.90
44627;DHT22;30333;52.192;8.834;2022-11-15T13:32:47;13.80;99.90
44627;DHT22;30333;52.192;8.834;2022-11-15T13:35:20;14.50;99.90
44627;DHT22;30333;52.192;8.834;2022-11-15T13:37:48;15.40;99.90
44627;DHT22;30333;52.192;8.834;2022-11-15T13:40:23;15.30;99.90
44627;DHT22;30333;52.192;8.834;2022-11-15T13:42:52;13.90;99.90
44627;DHT22;30333;52.192;8.834;2022-11-15T13:45:20;13.90;99.90
44627;DHT22;30333;52.192;8.834;2022-11-15T13:47:53;13.90;99.90
44627;DHT22;30333;52.192;8.834;2022-11-15T13:50:23;16.00;99.90
44627;DHT22;30333;52.192;8.834;2022-11-15T13:55:21;14.10;99.90
44627;DHT22;30333;52.192;8.834;2022-11-15T13:57:50;14.10;99.90
44627;DHT22;30333;52.192;8.834;2022-11-15T14:00:30;14.10;99.90
44627;DHT22;30333;52.192;8.834;2022-11-15T14:03:05;14.10;99.90
44627;DHT22;30333;52.192;8.834;2022-11-15T14:08:03;14.10;99.90
44627;DHT22;30333;52.192;8.834;2022-11-15T14:10:32;14.80;99.90
44627;DHT22;30333;52.192;8.834;2022-11-15T14:15:30;14.20;99.90
44627;DHT22;30333;52.192;8.834;2022-11-15T14:20:31;14.20;99.90
44627;DHT22;30333;52.192;8.834;2022-11-15T14:23:00;14.10;99.90
44627;DHT22;30333;52.192;8.834;2022-11-15T14:34:45;14.20;99.90
44627;DHT22;30333;52.192;8.834;2022-11-15T14:37:22;15.70;99.90
44627;DHT22;30333;52.192;8.834;2022-11-15T14:39:50;14.20;99.90
44627;DHT22;30333;52.192;8.834;2022-11-15T14:44:44;14.20;99.90
44627;DHT22;30333;52.192;8.834;2022-11-15T14:52:23;14.00;99.90
44627;DHT22;30333;52.192;8.834;2022-11-15T15:02:22;13.90;99.90
44627;DHT22;30333;52.192;8.834;2022-11-15T15:04:50;13.80;99.90
44627;DHT22;30333;52.192;8.834;2022-11-15T15:07:18;13.80;99.90
44627;DHT22;30333;52.192;8.834;2022-11-15T15:12:17;13.80;99.90
44627;DHT22;30333;52.192;8.834;2022-11-15T15:22:11;13.70;99.90
44627;DHT22;30333;52.192;8.834;2022-11-15T15:24:41;13.60;99.90
44627;DHT22;30333;52.192;8.834;2022-11-15T15:37:22;13.50;99.90
44627;DHT22;30333;52.192;8.834;2022-11-15T15:39:52;13.50;99.90
44627;DHT22;30333;52.192;8.834;2022-11-15T15:42:20;13.50;99.90
44627;DHT22;30333;52.192;8.834;2022-11-15T15:47:17;13.40;99.90
44627;DHT22;30333;52.192;8.834;2022-11-15T15:54:40;13.40;99.90
44627;DHT22;30333;52.192;8.834;2022-11-15T15:57:12;13.40;99.90
44627;DHT22;30333;52.192;8.834;2022-11-15T16:02:09;13.50;99.90
44627;DHT22;30333;52.192;8.834;2022-11-15T16:12:19;13.60;99.90
44627;DHT22;30333;52.192;8.834;2022-11-15T16:17:16;13.70;99.90
44627;DHT22;30333;52.192;8.834;2022-11-15T16:24:38;13.70;99.90
44627;DHT22;30333;52.192;8.834;2022-11-15T16:29:33;13.60;99.90
44627;DHT22;30333;52.192;8.834;2022-11-15T16:39:26;13.60;99.90
44627;DHT22;30333;52.192;8.834;2022-11-15T16:46:52;13.50;99.90
44627;DHT22;30333;52.192;8.834;2022-11-15T16:49:20;13.50;99.90
44627;DHT22;30333;52.192;8.834;2022-11-15T16:51:48;13.50;99.90
44627;DHT22;30333;52.192;8.834;2022-11-15T16:59:14;13.40;99.90
44627;DHT22;30333;52.192;8.834;2022-11-15T17:01:42;13.40;99.90
44627;DHT22;30333;52.192;8.834;2022-11-15T17:04:18;13.40;99.90
44627;DHT22;30333;52.192;8.834;2022-11-15T17:09:17;13.30;99.90
44627;DHT22;30333;52.192;8.834;2022-11-15T17:19:11;13.20;99.90
44627;DHT22;30333;52.192;8.834;2022-11-15T17:21:41;13.20;99.90
44627;DHT22;30333;52.192;8.834;2022-11-15T17:24:08;14.10;99.90
44627;DHT22;30333;52.192;8.834;2022-11-15T17:38:57;13.20;99.90
44627;DHT22;30333;52.192;8.834;2022-11-15T17:41:26;13.20;99.90
44627;DHT22;30333;52.192;8.834;2022-11-15T17:43:55;13.20;99.90
44627;DHT22;30333;52.192;8.834;2022-11-15T17:46:23;13.70;99.90
44627;DHT22;30333;52.192;8.834;2022-11-15T17:51:18;13.10;99.90
44627;DHT22;30333;52.192;8.834;2022-11-15T17:53:46;13.00;99.90
44627;DHT22;30333;52.192;8.834;2022-11-15T17:56:17;13.00;99.90
44627;DHT22;30333;52.192;8.834;2022-11-15T17:58:47;12.90;99.90
44627;DHT22;30333;52.192;8.834;2022-11-15T18:01:18;12.90;99.90
44627;DHT22;30333;52.192;8.834;2022-11-15T18:03:45;13.00;99.90
44627;DHT22;30333;52.192;8.834;2022-11-15T18:08:43;13.00;99.90
44627;DHT22;30333;52.192;8.834;2022-11-15T18:11:12;13.00;99.90
44627;DHT22;30333;52.192;8.834;2022-11-15T18:13:42;13.00;99.90
44627;DHT22;30333;52.192;8.834;2022-11-15T18:16:19;12.90;99.90
44627;DHT22;30333;52.192;8.834;2022-11-15T18:21:16;12.90;99.90
44627;DHT22;30333;52.192;8.834;2022-11-15T18:26:14;12.80;99.90
44627;DHT22;30333;52.192;8.834;2022-11-15T18:28:44;14.30;99.90
44627;DHT22;30333;52.192;8.834;2022-11-15T18:31:11;13.70;99.90
44627;DHT22;30333;52.192;8.834;2022-11-15T18:36:08;12.80;99.90
44627;DHT22;30333;52.192;8.834;2022-11-15T18:38:36;12.80;99.90
44627;DHT22;30333;52.192;8.834;2022-11-15T18:41:05;12.60;99.90
44627;DHT22;30333;52.192;8.834;2022-11-15T18:46:03;12.50;99.90
44627;DHT22;30333;52.192;8.834;2022-11-15T18:48:30;12.50;99.90
44627;DHT22;30333;52.192;8.834;2022-11-15T18:51:01;12.50;99.90
44627;DHT22;30333;52.192;8.834;2022-11-15T18:56:00;12.60;99.90
44627;DHT22;30333;52.192;8.834;2022-11-15T18:58:29;12.60;99.90
44627;DHT22;30333;52.192;8.834;2022-11-15T19:01:01;12.60;99.90
44627;DHT22;30333;52.192;8.834;2022-11-15T19:03:32;12.60;99.90
44627;DHT22;30333;52.192;8.834;2022-11-15T19:06:02;12.70;99.90
44627;DHT22;30333;52.192;8.834;2022-11-15T19:11:02;12.70;99.90
44627;DHT22;30333;52.192;8.834;2022-11-15T19:18:27;12.80;99.90
44627;DHT22;30333;52.192;8.834;2022-11-15T19:20:55;12.80;99.90
44627;DHT22;30333;52.192;8.834;2022-11-15T19:25:53;12.80;99.90
44627;DHT22;30333;52.192;8.834;2022-11-15T19:30:48;12.70;99.90
44627;DHT22;30333;52.192;8.834;2022-11-15T19:35:43;12.60;99.90
44627;DHT22;30333;52.192;8.834;2022-11-15T19:38:10;12.70;99.90
44627;DHT22;30333;52.192;8.834;2022-11-15T19:40:37;12.80;99.90
44627;DHT22;30333;52.192;8.834;2022-11-15T19:50:26;12.70;99.90
44627;DHT22;30333;52.192;8.834;2022-11-15T19:52:54;12.70;99.90
44627;DHT22;30333;52.192;8.834;2022-11-15T20:00:16;12.70;99.90
44627;DHT22;30333;52.192;8.834;2022-11-15T20:02:43;12.70;99.90
44627;DHT22;30333;52.192;8.834;2022-11-15T20:05:10;13.60;99.90
44627;DHT22;30333;52.192;8.834;2022-11-15T20:07:46;12.70;99.90
44627;DHT22;30333;52.192;8.834;2022-11-15T20:10:15;12.70;99.90
44627;DHT22;30333;52.192;8.834;2022-11-15T20:20:32;12.70;99.90
44627;DHT22;30333;52.192;8.834;2022-11-15T20:22:59;12.70;99.90
44627;DHT22;30333;52.192;8.834;2022-11-15T20:25:30;12.80;99.90
44627;DHT22;30333;52.192;8.834;2022-11-15T20:27:57;12.70;99.90
44627;DHT22;30333;52.192;8.834;2022-11-15T20:32:51;12.80;99.90
44627;DHT22;30333;52.192;8.834;2022-11-15T20:42:42;12.90;99.90
44627;DHT22;30333;52.192;8.834;2022-11-15T20:50:04;12.90;99.90
44627;DHT22;30333;52.192;8.834;2022-11-15T20:52:51;13.00;99.90
44627;DHT22;30333;52.192;8.834;2022-11-15T20:55:19;13.00;99.90
44627;DHT22;30333;52.192;8.834;2022-11-15T20:57:47;13.00;99.90
44627;DHT22;30333;52.192;8.834;2022-11-15T21:00:15;13.00;99.90
44627;DHT22;30333;52.192;8.834;2022-11-15T21:10:04;13.10;99.90
44627;DHT22;30333;52.192;8.834;2022-11-15T21:12:51;13.10;99.90
44627;DHT22;30333;52.192;8.834;2022-11-15T21:15:18;13.10;99.90
44627;DHT22;30333;52.192;8.834;2022-11-15T21:20:12;13.10;99.90
44627;DHT22;30333;52.192;8.834;2022-11-15T21:25:07;13.20;99.90
44627;DHT22;30333;52.192;8.834;2022-11-15T21:27:34;13.20;99.90
44627;DHT22;30333;52.192;8.834;2022-11-15T21:30:03;13.10;99.90
44627;DHT22;30333;52.192;8.834;2022-11-15T21:32:30;13.10;99.90
44627;DHT22;30333;52.192;8.834;2022-11-15T21:47:15;13.10;99.90
44627;DHT22;30333;52.192;8.834;2022-11-15T22:02:22;13.10;99.90
44627;DHT22;30333;52.192;8.834;2022-11-15T22:04:49;13.00;99.90
44627;DHT22;30333;52.192;8.834;2022-11-15T22:19:33;13.00;99.90
44627;DHT22;30333;52.192;8.834;2022-11-15T22:24:27;13.00;99.90
44627;DHT22;30333;52.192;8.834;2022-11-15T22:26:54;13.00;99.90
44627;DHT22;30333;52.192;8.834;2022-11-15T22:36:44;13.00;99.90
44627;DHT22;30333;52.192;8.834;2022-11-15T22:39:31;15.00;99.90
44627;DHT22;30333;52.192;8.834;2022-11-15T22:44:25;12.90;99.90
44627;DHT22;30333;52.192;8.834;2022-11-15T22:46:52;12.90;99.90
44627;DHT22;30333;52.192;8.834;2022-11-15T22:49:19;12.90;99.90
44627;DHT22;30333;52.192;8.834;2022-11-15T22:51:47;12.90;99.90
44627;DHT22;30333;52.192;8.834;2022-11-15T23:04:03;13.00;99.90
44627;DHT22;30333;52.192;8.834;2022-11-15T23:08:58;13.00;99.90
44627;DHT22;30333;52.192;8.834;2022-11-15T23:11:25;13.00;99.90
44627;DHT22;30333;52.192;8.834;2022-11-15T23:14:10;13.10;99.90
44627;DHT22;30333;52.192;8.834;2022-11-15T23:19:06;13.00;99.90
44627;DHT22;30333;52.192;8.834;2022-11-15T23:21:35;13.00;99.90
44627;DHT22;30333;52.192;8.834;2022-11-15T23:24:23;13.00;99.90
44627;DHT22;30333;52.192;8.834;2022-11-15T23:26:51;13.10;99.90
44627;DHT22;30333;52.192;8.834;2022-11-15T23:29:20;13.00;99.90
44627;DHT22;30333;52.192;8.834;2022-11-15T23:31:48;13.10;99.90
44627;DHT22;30333;52.192;8.834;2022-11-15T23:34:38;13.10;99.90